createdAt,value
2024-03-16T00:01:11.578Z,99943.80
2024-03-16T00:03:41.874Z,99945.33
2024-03-16T00:06:12.064Z,99941.24
2024-03-16T00:08:42.424Z,99940.48
2024-03-16T00:11:12.601Z,99943.02
2024-03-16T00:13:43.387Z,99938.50
2024-03-16T00:16:13.586Z,99940.99
2024-03-16T00:18:43.789Z,99942.39
2024-03-16T00:21:13.954Z,99943.52
2024-03-16T00:23:44.620Z,99949.48
2024-03-16T00:26:14.862Z,99954.19
2024-03-16T00:28:45.108Z,99950.40
2024-03-16T00:31:16.370Z,99950.25
2024-03-16T00:33:46.570Z,99946.62
2024-03-16T00:36:18.556Z,99944.83
2024-03-16T00:38:51.200Z,99948.13
2024-03-16T00:41:21.688Z,99945.10
2024-03-16T00:43:52.326Z,99949.05
2024-03-16T00:46:22.535Z,99947.23
2024-03-16T00:48:52.793Z,99946.73
2024-03-16T00:51:22.996Z,99948.66
2024-03-16T00:53:53.067Z,99949.00
2024-03-16T00:56:23.496Z,99943.98
2024-03-16T00:58:54.109Z,99943.42
2024-03-16T01:01:24.431Z,99939.30
2024-03-16T01:03:54.812Z,99934.35
2024-03-16T01:06:25.101Z,99937.05
2024-03-16T01:08:55.408Z,99938.59
2024-03-16T01:11:25.941Z,99934.20
2024-03-16T01:13:56.268Z,99939.66
2024-03-16T01:16:27.290Z,99940.00
2024-03-16T01:18:57.469Z,99938.67
2024-03-16T01:21:27.754Z,99934.50
2024-03-16T01:23:57.933Z,99933.01
2024-03-16T01:26:28.214Z,99931.05
2024-03-16T01:29:00.473Z,99928.23
2024-03-16T01:31:30.696Z,99931.65
2024-03-16T01:34:01.013Z,99927.41
2024-03-16T01:36:31.369Z,99927.75
2024-03-16T01:39:02.142Z,99925.19
2024-03-16T01:41:32.330Z,99923.28
2024-03-16T01:44:13.011Z,99920.60
2024-03-16T01:46:43.731Z,99920.85
2024-03-16T01:49:14.170Z,99923.10
2024-03-16T01:51:44.484Z,99923.12
2024-03-16T01:54:14.695Z,99919.54
2024-03-16T01:56:45.374Z,99919.34
2024-03-16T01:59:15.570Z,99918.19
2024-03-16T02:01:48.033Z,99913.96
2024-03-16T02:04:18.286Z,99914.48
2024-03-16T02:06:50.418Z,99915.68
2024-03-16T02:09:20.998Z,99914.80
2024-03-16T02:11:51.180Z,99913.52
2024-03-16T02:14:21.646Z,99916.20
2024-03-16T02:16:55.985Z,99917.21
2024-03-16T02:19:26.724Z,99919.18
2024-03-16T02:21:56.928Z,99921.13
2024-03-16T02:24:27.252Z,99916.05
2024-03-16T02:26:57.579Z,99916.95
2024-03-16T02:29:29.407Z,99914.80
2024-03-16T02:31:59.613Z,99914.84
2024-03-16T02:34:29.864Z,99911.77
2024-03-16T02:37:00.124Z,99912.54
2024-03-16T02:39:32.805Z,99909.35
2024-03-16T02:42:03.693Z,99915.25
2024-03-16T02:44:34.158Z,99917.48
2024-03-16T02:47:05.605Z,99916.94
2024-03-16T02:49:35.821Z,99918.09
2024-03-16T02:52:06.889Z,99919.27
2024-03-16T02:54:37.078Z,99918.95
2024-03-16T02:57:07.555Z,99918.92
2024-03-16T02:59:37.780Z,99917.77
2024-03-16T03:02:08.115Z,99920.40
2024-03-16T03:04:38.267Z,99930.61
2024-03-16T03:07:08.773Z,99929.23
2024-03-16T03:09:40.809Z,99924.53
2024-03-16T03:12:11.725Z,99928.89
2024-03-16T03:14:42.214Z,99928.17
2024-03-16T03:17:12.833Z,99927.39
2024-03-16T03:19:44.029Z,99932.84
2024-03-16T03:22:14.328Z,99931.08
2024-03-16T03:24:44.750Z,99935.70
2024-03-16T03:27:15.508Z,99933.77
2024-03-16T03:29:45.693Z,99928.59
2024-03-16T03:32:16.235Z,99935.45
2024-03-16T03:34:46.365Z,99938.14
2024-03-16T03:37:16.976Z,99943.48
2024-03-16T03:39:49.438Z,99945.60
2024-03-16T03:42:20.174Z,99947.56
2024-03-16T03:45:01.415Z,99950.43
2024-03-16T03:47:50.830Z,99953.58
2024-03-16T03:50:28.144Z,99955.00
2024-03-16T03:53:00.527Z,99956.31
2024-03-16T03:55:31.533Z,99954.60
2024-03-16T03:58:03.634Z,99951.39
2024-03-16T04:00:34.970Z,99950.67
2024-03-16T04:03:07.818Z,99954.96
2024-03-16T04:05:38.203Z,99956.70
2024-03-16T04:08:08.883Z,99963.02
2024-03-16T04:10:40.211Z,99969.02
2024-03-16T04:13:12.546Z,99973.52
2024-03-16T04:15:43.686Z,99968.16
2024-03-16T04:18:13.918Z,99970.88
2024-03-16T04:20:44.431Z,99972.00
2024-03-16T04:23:14.659Z,99973.42
2024-03-16T04:25:44.968Z,99976.45
2024-03-16T04:28:15.114Z,99972.25
2024-03-16T04:30:46.620Z,99975.67
2024-03-16T04:33:17.171Z,99976.14
2024-03-16T04:35:49.064Z,99979.48
2024-03-16T04:38:19.193Z,99986.13
2024-03-16T04:40:49.347Z,99986.45
2024-03-16T04:43:19.629Z,99986.30
2024-03-16T04:45:50.968Z,99983.39
2024-03-16T04:48:21.289Z,99983.25
2024-03-16T04:50:51.532Z,99983.52
2024-03-16T04:53:21.751Z,99982.71
2024-03-16T04:55:54.281Z,99982.48
2024-03-16T04:58:24.594Z,99984.86
2024-03-16T05:00:55.128Z,99986.09
2024-03-16T05:03:25.629Z,99985.48
2024-03-16T05:05:57.439Z,99985.36
2024-03-16T05:08:30.781Z,99989.58
2024-03-16T05:11:01.369Z,99988.25
2024-03-16T05:13:34.403Z,99988.81
2024-03-16T05:16:09.108Z,99999.58
2024-03-16T05:18:39.586Z,100001.64
2024-03-16T05:21:09.892Z,100003.95
2024-03-16T05:23:40.765Z,100005.27
2024-03-16T05:26:11.092Z,100005.50
2024-03-16T05:28:41.375Z,100006.99
2024-03-16T05:31:12.478Z,100015.93
2024-03-16T05:33:42.864Z,100002.06
2024-03-16T05:36:13.927Z,100006.41
2024-03-16T05:38:46.755Z,100006.54
2024-03-16T05:41:17.504Z,100014.19
2024-03-16T05:43:47.708Z,100012.92
2024-03-16T05:46:17.873Z,100008.88
2024-03-16T05:48:48.103Z,100018.69
2024-03-16T05:51:18.707Z,100017.38
2024-03-16T05:53:48.940Z,100019.48
2024-03-16T05:56:19.197Z,100021.36
2024-03-16T05:58:49.414Z,100022.03
2024-03-16T06:01:19.864Z,100023.64
2024-03-16T06:03:50.562Z,100032.42
2024-03-16T06:06:21.415Z,100030.09
2024-03-16T06:08:51.519Z,100028.36
2024-03-16T06:11:21.913Z,100027.62
2024-03-16T06:13:52.293Z,100035.06
2024-03-16T06:16:22.634Z,100033.77
2024-03-16T06:18:53.063Z,100037.87
2024-03-16T06:21:23.251Z,100045.11
2024-03-16T06:23:53.531Z,100046.36
2024-03-16T06:26:23.681Z,100044.35
2024-03-16T06:29:05.993Z,100051.52
2024-03-16T06:31:39.212Z,100051.84
2024-03-16T06:34:09.847Z,100052.79
2024-03-16T06:36:40.420Z,100059.42
2024-03-16T06:39:12.836Z,100060.87
2024-03-16T06:41:43.143Z,100064.61
2024-03-16T06:44:13.456Z,100066.42
2024-03-16T06:46:43.599Z,100072.17
2024-03-16T06:49:17.409Z,100076.42
2024-03-16T06:51:47.822Z,100080.95
2024-03-16T06:54:18.179Z,100082.13
2024-03-16T06:56:48.457Z,100081.45
2024-03-16T06:59:18.576Z,100080.55
2024-03-16T07:01:48.806Z,100085.36
2024-03-16T07:04:19.074Z,100085.58
2024-03-16T07:06:49.283Z,100088.10
2024-03-16T07:09:19.924Z,100088.23
2024-03-16T07:11:50.331Z,100085.02
2024-03-16T07:14:20.557Z,100085.73
2024-03-16T07:16:50.710Z,100088.00
2024-03-16T07:19:24.289Z,100094.98
2024-03-16T07:21:54.792Z,100096.95
2024-03-16T07:24:25.264Z,100098.38
2024-03-16T07:26:55.475Z,100103.14
2024-03-16T07:29:26.116Z,100105.44
2024-03-16T07:31:56.710Z,100106.77
2024-03-16T07:34:26.923Z,100107.30
2024-03-16T07:36:58.216Z,100110.26
2024-03-16T07:39:28.600Z,100104.58
2024-03-16T07:41:59.098Z,100103.50
2024-03-16T07:44:30.438Z,100103.34
2024-03-16T07:47:01.000Z,100103.73
2024-03-16T07:49:31.767Z,100109.96
2024-03-16T07:52:03.605Z,100106.80
2024-03-16T07:54:34.014Z,100111.05
2024-03-16T07:57:04.378Z,100108.33
2024-03-16T07:59:34.644Z,100112.98
2024-03-16T08:02:05.203Z,100115.66
2024-03-16T08:04:36.212Z,100115.46
2024-03-16T08:07:06.689Z,100115.38
2024-03-16T08:09:37.083Z,100119.96
2024-03-16T08:12:08.743Z,100125.98
2024-03-16T08:14:39.019Z,100128.88
2024-03-16T08:17:09.252Z,100130.23
2024-03-16T08:19:40.060Z,100130.68
2024-03-16T08:22:10.578Z,100135.50
2024-03-16T08:24:41.264Z,100135.83
2024-03-16T08:27:11.555Z,100136.45
2024-03-16T08:29:41.699Z,100138.89
2024-03-16T08:32:13.816Z,100135.58
2024-03-16T08:34:44.065Z,100134.04
2024-03-16T08:37:16.886Z,100134.64
2024-03-16T08:39:47.573Z,100135.51
2024-03-16T08:42:17.970Z,100133.68
2024-03-16T08:44:48.948Z,100133.27
2024-03-16T08:47:19.331Z,100134.70
2024-03-16T08:49:49.544Z,100131.06
2024-03-16T08:52:20.910Z,100136.41
2024-03-16T08:54:55.325Z,100141.02
2024-03-16T08:57:25.913Z,100138.37
2024-03-16T08:59:56.241Z,100139.46
2024-03-16T09:02:26.536Z,100136.34
2024-03-16T09:04:57.136Z,100135.06
2024-03-16T09:07:27.888Z,100133.38
2024-03-16T09:09:58.950Z,100131.88
2024-03-16T09:12:29.385Z,100129.88
2024-03-16T09:14:59.545Z,100129.92
2024-03-16T09:17:31.199Z,100129.63
2024-03-16T09:20:07.711Z,100129.92
2024-03-16T09:22:37.980Z,100130.52
2024-03-16T09:25:10.116Z,100133.05
2024-03-16T09:27:41.203Z,100131.67
2024-03-16T09:30:12.911Z,100129.42
2024-03-16T09:32:43.380Z,100128.67
2024-03-16T09:35:14.149Z,100133.83
2024-03-16T09:37:44.582Z,100130.88
2024-03-16T09:40:15.571Z,100132.29
2024-03-16T09:42:46.163Z,100130.35
2024-03-16T09:45:20.454Z,100129.84
2024-03-16T09:47:50.956Z,100129.96
2024-03-16T09:50:25.422Z,100125.96
2024-03-16T09:52:56.569Z,100120.88
2024-03-16T09:55:28.394Z,100128.57
2024-03-16T09:57:58.596Z,100127.69
2024-03-16T10:00:32.270Z,100125.52
2024-03-16T10:03:02.462Z,100125.80
2024-03-16T10:05:32.851Z,100133.45
2024-03-16T10:08:03.286Z,100130.92
2024-03-16T10:10:33.577Z,100135.10
2024-03-16T10:13:11.943Z,100136.64
2024-03-16T10:15:45.764Z,100136.30
2024-03-16T10:18:17.803Z,100137.11
2024-03-16T10:20:47.928Z,100133.39
2024-03-16T10:23:21.107Z,100131.59
2024-03-16T10:25:51.506Z,100133.24
2024-03-16T10:28:21.665Z,100132.05
2024-03-16T10:30:52.418Z,100139.75
2024-03-16T10:33:23.411Z,100144.10
2024-03-16T10:35:57.119Z,100149.20
2024-03-16T10:38:28.542Z,100157.73
2024-03-16T10:41:00.953Z,100160.20
2024-03-16T10:43:34.480Z,100162.53
2024-03-16T10:46:06.975Z,100161.02
2024-03-16T10:48:37.830Z,100159.48
2024-03-16T10:51:16.229Z,100162.50
2024-03-16T10:53:47.694Z,100158.29
2024-03-16T10:56:19.156Z,100158.33
2024-03-16T10:58:52.871Z,100153.31
2024-03-16T11:01:23.067Z,100156.50
2024-03-16T11:04:02.159Z,100153.27
2024-03-16T11:06:42.378Z,100151.31
2024-03-16T11:09:23.741Z,100146.91
2024-03-16T11:11:56.398Z,100146.79
2024-03-16T11:14:29.366Z,100149.59
2024-03-16T11:16:59.583Z,100146.63
2024-03-16T11:19:30.161Z,100146.30
2024-03-16T11:22:04.830Z,100145.89
2024-03-16T11:24:37.053Z,100149.66
2024-03-16T11:27:15.112Z,100151.54
2024-03-16T11:30:01.980Z,100151.97
2024-03-16T11:32:34.275Z,100142.71
2024-03-16T11:35:15.161Z,100141.02
2024-03-16T11:37:48.834Z,100138.87
2024-03-16T11:40:28.533Z,100132.55
2024-03-16T11:42:59.133Z,100130.82
2024-03-16T11:45:34.476Z,100124.30
2024-03-16T11:48:06.319Z,100119.01
2024-03-16T11:50:36.608Z,100115.21
2024-03-16T11:53:07.844Z,100125.48
2024-03-16T11:55:39.527Z,100126.12
2024-03-16T11:58:10.540Z,100129.20
2024-03-16T12:00:46.184Z,100128.84
2024-03-16T12:03:19.014Z,100146.63
2024-03-16T12:05:50.085Z,100168.59
2024-03-16T12:08:20.386Z,100180.67
2024-03-16T12:10:51.619Z,100181.30
2024-03-16T12:13:21.969Z,100175.06
2024-03-16T12:15:55.865Z,100172.61
2024-03-16T12:18:26.871Z,100174.04
2024-03-16T12:20:57.444Z,100173.08
2024-03-16T12:23:29.621Z,100175.69
2024-03-16T12:26:00.699Z,100181.38
2024-03-16T12:28:31.082Z,100182.87
2024-03-16T12:31:01.662Z,100182.81
2024-03-16T12:33:35.022Z,100181.73
2024-03-16T12:36:04.485Z,100181.23
2024-03-16T12:38:34.944Z,100174.14
2024-03-16T12:41:08.491Z,100178.53
2024-03-16T12:43:38.772Z,100170.50
2024-03-16T12:46:10.102Z,100170.64
2024-03-16T12:48:40.462Z,100161.92
2024-03-16T12:51:11.659Z,100171.28
2024-03-16T12:53:41.842Z,100172.86
2024-03-16T12:56:12.238Z,100164.73
2024-03-16T12:58:42.333Z,100164.87
2024-03-16T13:01:15.619Z,100156.38
2024-03-16T13:03:48.944Z,100151.20
2024-03-16T13:06:24.457Z,100146.12
2024-03-16T13:08:55.206Z,100135.60
2024-03-16T13:11:26.420Z,100136.30
2024-03-16T13:13:56.822Z,100140.33
2024-03-16T13:16:27.149Z,100135.55
2024-03-16T13:18:57.448Z,100133.09
2024-03-16T13:21:28.258Z,100139.60
2024-03-16T13:23:58.507Z,100139.23
2024-03-16T13:26:29.024Z,100144.69
2024-03-16T13:29:00.354Z,100145.61
2024-03-16T13:31:32.125Z,100154.92
2024-03-16T13:34:02.694Z,100150.34
2024-03-16T13:36:32.974Z,100154.45
2024-03-16T13:39:07.355Z,100157.80
2024-03-16T13:41:37.614Z,100156.73
2024-03-16T13:44:08.496Z,100156.81
2024-03-16T13:46:40.168Z,100157.34
2024-03-16T13:49:12.220Z,100162.17
2024-03-16T13:51:42.377Z,100191.85
2024-03-16T13:54:14.673Z,100230.80
2024-03-16T13:56:44.843Z,100244.19
2024-03-16T13:59:15.320Z,100254.35
2024-03-16T14:01:45.760Z,100262.18
2024-03-16T14:04:17.899Z,100275.60
2024-03-16T14:06:48.356Z,100287.04
2024-03-16T14:09:21.217Z,100294.53
2024-03-16T14:11:51.449Z,100302.27
2024-03-16T14:14:21.761Z,100308.36
2024-03-16T14:16:52.090Z,100310.98
2024-03-16T14:19:22.470Z,100319.03
2024-03-16T14:21:52.769Z,100326.98
2024-03-16T14:24:23.368Z,100327.03
2024-03-16T14:26:53.567Z,100332.09
2024-03-16T14:29:25.028Z,100339.18
2024-03-16T14:31:55.304Z,100340.16
2024-03-16T14:34:25.527Z,100344.99
2024-03-16T14:36:55.731Z,100354.70
2024-03-16T14:39:28.910Z,100360.92
2024-03-16T14:41:59.254Z,100362.69
2024-03-16T14:44:29.531Z,100369.23
2024-03-16T14:46:59.817Z,100380.34
2024-03-16T14:49:29.987Z,100382.69
2024-03-16T14:52:00.737Z,100390.00
2024-03-16T14:54:30.949Z,100390.61
2024-03-16T14:57:01.354Z,100386.58
2024-03-16T14:59:31.607Z,100390.13
2024-03-16T15:02:01.907Z,100388.23
2024-03-16T15:04:32.579Z,100389.08
2024-03-16T15:07:03.570Z,100395.30
2024-03-16T15:09:33.738Z,100401.40
2024-03-16T15:12:03.973Z,100402.89
2024-03-16T15:14:34.330Z,100409.16
2024-03-16T15:17:04.612Z,100413.44
2024-03-16T15:19:34.890Z,100419.11
2024-03-16T15:22:05.335Z,100421.70
2024-03-16T15:24:37.319Z,100422.70
2024-03-16T15:27:28.983Z,100422.38
2024-03-16T15:29:59.110Z,100428.86
2024-03-16T15:32:29.265Z,100432.98
2024-03-16T15:34:59.599Z,100432.48
2024-03-16T15:37:29.913Z,100435.20
2024-03-16T15:40:00.359Z,100444.91
2024-03-16T15:42:30.739Z,100450.58
2024-03-16T15:45:02.395Z,100455.70
2024-03-16T15:47:34.175Z,100463.33
2024-03-16T15:50:04.474Z,100471.98
2024-03-16T15:52:36.040Z,100472.13
2024-03-16T15:55:07.736Z,100483.05
2024-03-16T15:57:38.069Z,100487.56
2024-03-16T16:00:13.118Z,100492.77
2024-03-16T16:02:43.480Z,100498.27
2024-03-16T16:05:15.925Z,100501.23
2024-03-16T16:07:46.124Z,100507.98
2024-03-16T16:10:16.244Z,100510.16
2024-03-16T16:12:46.689Z,100511.78
2024-03-16T16:15:20.811Z,100516.17
2024-03-16T16:17:51.182Z,100515.95
2024-03-16T16:20:21.358Z,100518.77
2024-03-16T16:22:53.606Z,100522.09
2024-03-16T16:25:26.115Z,100525.80
2024-03-16T16:27:56.293Z,100530.65
2024-03-16T16:30:26.410Z,100533.37
2024-03-16T16:32:57.376Z,100542.73
2024-03-16T16:35:27.504Z,100549.91
2024-03-16T16:37:57.709Z,100550.96
2024-03-16T16:40:29.041Z,100552.98
2024-03-16T16:43:00.174Z,100563.59
2024-03-16T16:45:30.391Z,100565.12
2024-03-16T16:48:01.445Z,100579.80
2024-03-16T16:50:31.692Z,100593.38
2024-03-16T16:53:02.703Z,100599.58
2024-03-16T16:55:35.291Z,100613.73
2024-03-16T16:58:05.651Z,100624.00
2024-03-16T17:00:37.380Z,100629.71
2024-03-16T17:03:08.368Z,100631.48
2024-03-16T17:05:38.853Z,100633.44
2024-03-16T17:08:09.788Z,100638.38
2024-03-16T17:10:39.941Z,100639.48
2024-03-16T17:13:10.498Z,100643.98
2024-03-16T17:15:42.082Z,100650.16
2024-03-16T17:18:13.742Z,100656.11
2024-03-16T17:20:43.816Z,100662.83
2024-03-16T17:23:14.037Z,100667.88
2024-03-16T17:25:44.212Z,100668.61
2024-03-16T17:28:14.407Z,100674.66
2024-03-16T17:30:44.650Z,100680.11
2024-03-16T17:33:16.655Z,100683.30
2024-03-16T17:35:47.201Z,100686.72
2024-03-16T17:38:18.293Z,100694.52
2024-03-16T17:40:48.527Z,100703.83
2024-03-16T17:43:18.726Z,100707.39
2024-03-16T17:45:48.941Z,100711.92
2024-03-16T17:48:20.842Z,100717.55
2024-03-16T17:50:51.057Z,100722.18
2024-03-16T17:53:22.621Z,100724.36
2024-03-16T17:55:52.821Z,100732.58
2024-03-16T17:58:22.940Z,100733.05
2024-03-16T18:00:53.111Z,100741.45
2024-03-16T18:03:23.893Z,100741.70
2024-03-16T18:05:54.155Z,100749.80
2024-03-16T18:08:24.389Z,100751.94
2024-03-16T18:10:54.579Z,100756.63
2024-03-16T18:13:24.814Z,100762.18
2024-03-16T18:15:56.207Z,100762.36
2024-03-16T18:18:26.677Z,100763.39
2024-03-16T18:20:57.146Z,100764.57
2024-03-16T18:23:27.611Z,100765.90
2024-03-16T18:25:58.248Z,100767.99
2024-03-16T18:28:30.418Z,100770.36
2024-03-16T18:31:01.542Z,100774.85
2024-03-16T18:33:33.832Z,100780.85
2024-03-16T18:36:08.068Z,100786.90
2024-03-16T18:38:38.556Z,100788.48
2024-03-16T18:41:09.381Z,100793.25
2024-03-16T18:43:40.200Z,100799.69
2024-03-16T18:46:14.564Z,100804.98
2024-03-16T18:48:47.085Z,100806.46
2024-03-16T18:51:17.781Z,100811.67
2024-03-16T18:53:48.174Z,100814.10
2024-03-16T18:56:19.511Z,100820.91
2024-03-16T18:58:50.181Z,100820.58
2024-03-16T19:01:20.969Z,100824.15
2024-03-16T19:03:51.319Z,100824.90
2024-03-16T19:06:21.578Z,100826.57
2024-03-16T19:08:51.849Z,100831.38
2024-03-16T19:11:25.007Z,100832.69
2024-03-16T19:13:55.996Z,100832.77
2024-03-16T19:16:26.239Z,100837.00
2024-03-16T19:19:00.940Z,100838.16
2024-03-16T19:21:31.689Z,100843.18
2024-03-16T19:24:02.253Z,100846.18
2024-03-16T19:26:32.582Z,100848.00
2024-03-16T19:29:04.973Z,100855.35
2024-03-16T19:31:35.757Z,100859.95
2024-03-16T19:34:05.995Z,100860.23
2024-03-16T19:36:36.248Z,100865.63
2024-03-16T19:39:10.498Z,100870.08
2024-03-16T19:41:42.121Z,100873.48
2024-03-16T19:44:12.625Z,100873.98
2024-03-16T19:46:43.004Z,100873.08
2024-03-16T19:49:15.611Z,100878.98
2024-03-16T19:51:46.810Z,100876.96
2024-03-16T19:54:17.047Z,100879.08
2024-03-16T19:56:47.697Z,100882.40
2024-03-16T19:59:18.224Z,100886.17
2024-03-16T20:01:51.473Z,100887.30
2024-03-16T20:04:22.085Z,100891.02
2024-03-16T20:06:56.062Z,100895.30
2024-03-16T20:09:27.066Z,100895.76
2024-03-16T20:11:59.558Z,100894.94
2024-03-16T20:14:30.370Z,100895.19
2024-03-16T20:17:01.232Z,100895.02
2024-03-16T20:19:31.540Z,100895.91
2024-03-16T20:22:02.255Z,100896.05
2024-03-16T20:24:34.624Z,100901.11
2024-03-16T20:27:06.191Z,100906.77
2024-03-16T20:29:36.580Z,100912.58
2024-03-16T20:32:08.118Z,100917.05
2024-03-16T20:34:39.742Z,100924.69
2024-03-16T20:37:10.047Z,100925.26
2024-03-16T20:39:44.200Z,100922.92
2024-03-16T20:42:14.925Z,100925.24
2024-03-16T20:44:45.210Z,100931.61
2024-03-16T20:47:15.540Z,100934.29
2024-03-16T20:49:45.975Z,100940.09
2024-03-16T20:52:21.169Z,100944.94
2024-03-16T20:54:51.478Z,100948.01
2024-03-16T20:57:22.178Z,100947.63
2024-03-16T20:59:52.404Z,100953.27
2024-03-16T21:02:22.774Z,100951.10
2024-03-16T21:04:53.978Z,100954.02
2024-03-16T21:07:24.702Z,100954.35
2024-03-16T21:09:54.944Z,100958.41
2024-03-16T21:12:25.354Z,100959.70
2024-03-16T21:14:55.568Z,100968.79
2024-03-16T21:17:25.738Z,100974.02
2024-03-16T21:19:56.311Z,100975.74
2024-03-16T21:22:29.213Z,100981.33
2024-03-16T21:24:59.943Z,100979.20
2024-03-16T21:27:30.078Z,100977.85
2024-03-16T21:30:00.342Z,100988.04
2024-03-16T21:32:30.767Z,100989.67
2024-03-16T21:35:12.309Z,100991.27
2024-03-16T21:37:43.902Z,100991.41
2024-03-16T21:40:16.140Z,100990.74
2024-03-16T21:42:47.069Z,100992.13
2024-03-16T21:45:21.476Z,100991.08
2024-03-16T21:47:51.913Z,100991.85
2024-03-16T21:50:22.689Z,100990.01
2024-03-16T21:52:53.294Z,100987.27
2024-03-16T21:55:23.695Z,100988.03
2024-03-16T21:57:54.103Z,100989.53
2024-03-16T22:00:24.654Z,100988.94
2024-03-16T22:02:55.497Z,100994.72
2024-03-16T22:05:29.973Z,100996.60
2024-03-16T22:08:04.376Z,101007.64
2024-03-16T22:10:35.137Z,101005.82
2024-03-16T22:13:06.354Z,101009.20
2024-03-16T22:15:36.564Z,101011.75
2024-03-16T22:18:07.825Z,101016.30
2024-03-16T22:20:38.719Z,101016.69
2024-03-16T22:23:09.482Z,101022.75
2024-03-16T22:25:40.289Z,101026.16
2024-03-16T22:28:10.525Z,101028.55
2024-03-16T22:30:40.734Z,101028.27
2024-03-16T22:33:12.885Z,101032.80
2024-03-16T22:35:43.348Z,101030.80
2024-03-16T22:38:14.228Z,101037.75
2024-03-16T22:40:44.612Z,101039.46
2024-03-16T22:43:17.304Z,101044.20
2024-03-16T22:45:47.942Z,101046.48
2024-03-16T22:48:18.234Z,101048.59
2024-03-16T22:50:48.443Z,101048.90
2024-03-16T22:53:19.499Z,101051.17
2024-03-16T22:55:49.794Z,101050.32
2024-03-16T22:58:20.084Z,101051.56
2024-03-16T23:00:53.447Z,101050.01
2024-03-16T23:03:23.716Z,101052.84
2024-03-16T23:05:53.882Z,101053.36
2024-03-16T23:08:24.277Z,101053.46
2024-03-16T23:10:56.852Z,101053.41
2024-03-16T23:13:27.211Z,101056.58
2024-03-16T23:15:57.886Z,101059.59
2024-03-16T23:18:28.503Z,101064.08
2024-03-16T23:20:59.277Z,101062.63
2024-03-16T23:23:30.633Z,101065.83
2024-03-16T23:26:00.856Z,101067.56
2024-03-16T23:28:32.074Z,101073.00
2024-03-16T23:31:04.271Z,101077.16
2024-03-16T23:33:34.431Z,101079.17
2024-03-16T23:36:06.412Z,101079.63
2024-03-16T23:38:36.642Z,101082.02
2024-03-16T23:41:07.351Z,101078.16
2024-03-16T23:43:37.571Z,101079.79
2024-03-16T23:46:10.686Z,101078.86
2024-03-16T23:48:40.930Z,101077.21
2024-03-16T23:51:11.118Z,101076.87
2024-03-16T23:53:47.540Z,101080.29
2024-03-16T23:56:18.184Z,101080.71
2024-03-16T23:58:48.653Z,101080.66
